Terminal Aerodrome Forecast
Issued by NWS Jackson, KY

Home | Current Version | Previous Version | Text Only | Print | Product List | Glossary On
Versions: 1 2 3 4 5 6 7 8 9 10 11 12 13 14 15 16 17 18 19 20 21 22
000
FTUS43 KJKL 250304 AAB
TAFJKL
TAF AMD
KJKL 250304Z 2503/2524 VRB03KT P6SM VCSH BKN018 BKN060
     FM250600 23005KT P6SM VCSH FEW008 SCT015 OVC030
     FM251000 23005KT P6SM VCSH SCT008 BKN015
     FM251400 23008KT 5SM SHRA OVC008=

USA.gov is the U.S. government's official web portal to all federal, state and local government web resources and services.